ヴォルゴグラード の空港の天気 - METARとTAF

ヴォルゴグラード国際空港 ( URWW / VOG ) - ロシア ヴォルゴグラード
飛行場実況気象(Metar)
観測時間06/18 10:30 MSK (06/18 07:30 UTC)
風向・風速東 4m/s
視程10km以上
天気現象
なし
気温25℃
湿度22%
気圧1013hPa
METARURWW 180730Z 09004MPS 010V120 CAVOK 25/02 Q1013 R06/010070 NOSIG
過去の天気等 Google飛行場航空写真 Wunderground天気予報

過去48時間のMETAR

飛行場予報(TAF)
発表時間: 6/18 07:57 MSK (6/18 04:57 UTC)
予報対象時間: 18日9時 MSK ~ 18日18時 MSK
風向・風速東北東 5m/s 瞬間風速 10m/s
視程10km以上
全天の4割程度の雲 雲底高度 1220m
18日9時 MSK ~ 18日15時 MSK に一時的に
風向・風速東 6m/s 瞬間風速 12m/s
18日15時 MSK ~ 18日18時 MSK に一時的に
風向・風速北東 3m/s 瞬間風速 8m/s
TAF URWW 180457Z 1806/1815 07005G10MPS 9999 SCT040
TEMPO 1806/1812 10006G12MPS
TEMPO 1812/1815 04003G08MPS